Hamlin, Texas
Current Conditions -  °F | °C
As of 10:15 AM on Wednesday 22 Oct 2014 (Local Time) from KSWW Reporting Station
Overcast Overcast  
Wind Chill: 62°   Ceiling: 6500
Heat Index: 62°   Visibility: 10mi
Dew Point: 56°   Wind: 8mph
Humidity: 82%   Direction: 190°S
Pressure: 30.19"   Gusts: NA
Location:  32.88°N, 100.13°W
Report Text: KSWW 221515Z AUTO 19007KT 10SM OVC065 17/13 A3019 RMK AO2 T01650134
Loading
Personal Weather Stations






























Interactive Weather Map
Tropical Storm Tracking
New forecast layout! Learn more

10-Day Weather Forecast

Advertisements
Track Severe Weather on mobile